DeLand, FL

5:56 PM EST on December 10, 2016 (GMT -0500)
Glenwood Hammock | | Change Station

Elev 111 ft 29.06 °N, 81.36 °W | Updated 8 minutes ago

Partly Cloudy
Partly Cloudy
60.9 °F
Feels Like 60.9 °F
N
2.0
Wind Variable Wind from NE
Gusts 4.0 mph

Today
High -- | Low -- °F
--% Chance of Precip.
Yesterday
High -- | Low -- °F
Precip. -- in
Pressure 30.34 in
Visibility 10.0 miles
Clouds Scattered Clouds 6000 ft
Dew Point 50 °F
Humidity 68%
Rainfall 0.00 in
Snow Depth Not available.
7:08 AM 5:28 PM
Waxing Gibbous, 87% visible
METAR KDED 102235Z AUTO 01008KT 10SM SCT060 16/12 A3034 RMK AO2
Pressure 30.34 in
Visibility 10.0 miles
Clouds Scattered Clouds 6000 ft
Dew Point 50 °F
Humidity 68%
Rainfall 0.00 in
Snow Depth Not available.
7:08 AM 5:28 PM
Waxing Gibbous, 87% visible
METAR KDED 102235Z AUTO 01008KT 10SM SCT060 16/12 A3034 RMK AO2

10-Day Weather Forecast

Almanac

Astronomy

Dec. 10, 2016 Rise Set
Actual Time
Civil Twilight
Nautical Twilight
Astronomical Twilight
Moon
Length of Visible Light
Length of Day
Tomorrow will be .
, % of the Moon is Illuminated

Today's Extremes

State Highs State Lows

Community

WunderPhotos

Upload Photos

1,956,672 photos uploaded!

WunderBlog® & News

Nearby

Air Quality

  Air Quality AQ Index Pollutant
Not available.

Snow Depth

Station Depth Elevation

Earthquake Activity

City Distance Mag. Time & Date
Minimum magnitude displayed is 2.5.

Coastal Water Temperatures

Place Temperature

Stations

Nearby Weather Stations

Station Location Temp. Windchill Dew Point Humidity Wind Precip. Elev Updated Type
                   

Watches & Warnings

There are currently no watches in effect.